Strona główna
METAR-TAF:

METAR-TAF

Lotnisko :

Port lotniczy Antananarywa

Antananarywa, Madagaskar

Szerokość geograficzna: 18-48S, Długość geograficzna: 047-29E, wysokość: 1279 m

Aktualna obserwacja pogody

Raport powstał 19 minut temu, godzina 00:30 UTC
Wiatr 4 kt od wschód
Temperatura 14°C
Wilgotność 94%
Ciśnienie 1025 hPa
Widzialność 10 km lub więcej
Przerywane chmury na wysokości 2000 ft

METAR: FMMI 210030Z 08004KT 9999 BKN020 14/13 Q1025 NOSIG

czas: 03:49 (00:49 UTC)

Prognoza

Raport powstał 1 godzina i 49 minut temu, godzina 23:00 UTC
Prognoza ważna od 21 godzina 00 UTC do 22 godzina 06 UTC
Wiatr 5 kt z kierunków zmiennych
Widzialność 10 km lub więcej
Mało chmury na wysokości 700 ft
Rozproszone chmury na wysokości 2000 ft
Prawdopodobieństwo 30%
od 21 godzina 02 UTC do 21 godzina 05 UTC
Widzialność: 4000 m
zamglenie

TAF: FMMI 202300Z 2100/2206 VRB05KT 9999 FEW007 SCT020 PROB30 2102/2105 4000 BR

Obserwacja i prognoza pogody dla ponad 4000 lotnisk (raport METAR i TAF).

Dostępne stacje oznaczono żółtymi i czerwonymi punktami na mapie.

Najedź kursorem aby zobaczyć nazwę stacji.

Kliknij aby zobaczyć obserwacje i prognozy pogody.

Aby zmienić mapę: kliknij na zielony przycisk z czarnym krzyżykiem, aby powiększyć; na zielony przycisk z myślnikiem, aby pomniejszyć; na zielone strzałki, aby przejść do map sąsiednich.


METAR-TAF: